createdAt,value
2018-05-07T19:47:54.500Z,30.47
2018-05-07T19:50:22.111Z,30.51
2018-05-07T19:52:50.184Z,30.73
2018-05-07T19:55:17.739Z,30.87
2018-05-07T19:57:45.273Z,30.96
2018-05-07T20:00:12.803Z,31.44
2018-05-07T20:02:40.395Z,31.47
2018-05-07T20:05:07.935Z,31.41
2018-05-07T20:07:35.534Z,32.08
2018-05-07T20:10:03.076Z,31.90
2018-05-07T20:12:30.667Z,32.12
2018-05-07T20:14:58.224Z,32.28
2018-05-07T20:17:25.836Z,32.55
2018-05-07T20:19:53.414Z,32.81
2018-05-07T20:22:20.960Z,32.99
2018-05-07T20:24:48.504Z,33.20
2018-05-07T20:27:16.258Z,33.34
2018-05-07T20:29:44.307Z,33.43
2018-05-07T20:32:12.444Z,33.65
2018-05-07T20:34:42.969Z,33.89
2018-05-07T20:37:11.064Z,33.70
2018-05-07T20:39:41.987Z,33.90
2018-05-07T20:42:10.512Z,33.92
2018-05-07T20:44:39.414Z,34.19
2018-05-07T20:47:08.108Z,34.29
2018-05-07T20:49:36.405Z,34.19
2018-05-07T20:52:05.389Z,34.12
2018-05-07T20:54:33.620Z,34.55
2018-05-07T20:57:04.505Z,34.72
2018-05-07T20:59:34.145Z,34.70
2018-05-07T21:02:04.240Z,34.80
2018-05-07T21:04:32.160Z,34.92
2018-05-07T21:07:00.272Z,35.30
2018-05-07T21:09:29.168Z,35.20
2018-05-07T21:11:57.149Z,35.31
2018-05-07T21:14:25.123Z,35.30
2018-05-07T21:16:54.142Z,35.15
2018-05-07T21:19:22.209Z,34.77
2018-05-07T21:21:50.244Z,34.67
2018-05-07T21:24:19.829Z,34.40
2018-05-07T21:26:48.007Z,34.46
2018-05-07T21:29:17.115Z,33.99
2018-05-07T21:31:44.772Z,34.05
2018-05-07T21:34:12.512Z,34.05
2018-05-07T21:36:40.114Z,33.60
2018-05-07T21:39:07.656Z,33.92
2018-05-07T21:41:35.244Z,33.44
2018-05-07T21:44:02.824Z,33.15
2018-05-07T21:46:30.364Z,33.35
2018-05-07T21:48:57.979Z,33.29
2018-05-07T21:51:25.512Z,33.22
2018-05-07T21:53:53.090Z,33.18
2018-05-07T21:56:20.629Z,33.03
2018-05-07T21:58:48.182Z,33.06
2018-05-07T22:01:15.739Z,32.80
2018-05-07T22:03:43.511Z,32.70
2018-05-07T22:06:11.100Z,32.76
2018-05-07T22:08:38.689Z,32.75
2018-05-07T22:11:06.215Z,32.56
2018-05-07T22:13:33.822Z,32.77
2018-05-07T22:16:02.195Z,32.80
2018-05-07T22:18:29.769Z,32.74
2018-05-07T22:20:57.367Z,32.54
2018-05-07T22:23:24.932Z,32.64
2018-05-07T22:25:52.493Z,32.55
2018-05-07T22:28:20.152Z,32.61
2018-05-07T22:30:47.689Z,32.60
2018-05-07T22:33:15.230Z,32.56
2018-05-07T22:35:42.773Z,32.70
2018-05-07T22:38:10.369Z,32.72
2018-05-07T22:40:37.928Z,32.67
2018-05-07T22:43:05.472Z,32.75
2018-05-07T22:45:33.082Z,32.97
2018-05-07T22:48:00.671Z,32.96
2018-05-07T22:50:28.218Z,32.98
2018-05-07T22:52:55.874Z,33.10
2018-05-07T22:55:23.420Z,33.15
2018-05-07T22:57:51.007Z,33.45
2018-05-07T23:00:18.572Z,33.33
2018-05-07T23:02:46.946Z,33.34
2018-05-07T23:05:14.457Z,33.45
2018-05-07T23:07:42.028Z,33.58
2018-05-07T23:10:09.566Z,33.54
2018-05-07T23:12:37.088Z,33.53
2018-05-07T23:15:04.670Z,33.60
2018-05-07T23:17:32.212Z,33.76
2018-05-07T23:19:59.771Z,33.69
2018-05-07T23:22:27.316Z,33.76
2018-05-07T23:24:55.216Z,33.85
2018-05-07T23:27:22.785Z,33.90
2018-05-07T23:29:50.345Z,33.98
2018-05-07T23:32:17.881Z,34.09
2018-05-07T23:34:45.492Z,34.25
2018-05-07T23:37:13.025Z,34.19
2018-05-07T23:39:40.578Z,34.34
2018-05-07T23:42:08.108Z,34.55
2018-05-07T23:44:35.680Z,34.44
2018-05-07T23:47:03.242Z,34.71
2018-05-07T23:49:31.098Z,34.83
2018-05-07T23:51:58.688Z,35.03
2018-05-07T23:54:26.285Z,35.27
2018-05-07T23:56:53.843Z,35.34
2018-05-07T23:59:21.403Z,35.43
